Northern Maine Medical Center (FTK)
Ft. Kent, ME
Field Elevation: 610
Lat: 47°16.09N  Long: 68°35.54W
   
    
Weather Advisories
2017-03-30   10:46 Z
Altimeter 30.12" Hg
Wind 050° @ 8 KT
Gusts 16 KT
Visibility 10 SM
Ceiling --
Temperature -1° C (30° F)
Dewpoint -5° C (23° F)
Relative Humidity 77%
Density Altitude --
Condensation Altitude 2,500 feet
Wind Chill: -6° C (21° F)
Wind and Runways
Indicated Runway = 00
Headwind = 5 kt
Crosswind = 6 kt
History
 
 
 
More Info
All DigiWx sites map
 
NOAA Forecast
 
Airport IQ 5010
(KBXM) Brunswick, ME
(39N) Princeton, NJ
 
about DigiWx
 
FAA Disclaimer: The data displayed is for advisory purposes only and is not to be used for flight planning or operations. For official data, please call (not available) to hear the current automated AWOS voice message.
  METAR FTK 301046Z AUTO 05008G16KT VIS 10 SM M01/M05 A3012